createdAt,value
2018-06-09T00:02:40.807Z,62.71
2018-06-09T00:17:34.471Z,62.49
2018-06-09T00:32:39.865Z,63.02
2018-06-09T00:47:40.069Z,63.90
2018-06-09T01:02:40.013Z,64.98
2018-06-09T01:17:46.143Z,65.36
2018-06-09T01:32:42.348Z,66.32
2018-06-09T01:47:46.307Z,66.57
2018-06-09T02:02:40.492Z,66.24
2018-06-09T02:17:40.565Z,66.07
2018-06-09T02:32:34.879Z,65.88
2018-06-09T02:47:36.992Z,66.04
2018-06-09T03:02:34.247Z,68.17
2018-06-09T03:17:34.287Z,68.81
2018-06-09T03:32:35.717Z,68.25
2018-06-09T03:47:34.375Z,67.33
2018-06-09T04:02:33.942Z,66.31
2018-06-09T04:17:34.418Z,65.40
2018-06-09T04:32:35.929Z,64.58
2018-06-09T04:47:34.874Z,63.55
2018-06-09T05:02:36.524Z,62.91
2018-06-09T05:17:34.883Z,62.03
2018-06-09T05:32:39.214Z,61.37
2018-06-09T05:47:37.494Z,60.78
2018-06-09T06:02:37.795Z,60.76
2018-06-09T06:17:35.546Z,58.87
2018-06-09T06:32:35.536Z,54.19
2018-06-09T06:47:34.812Z,52.23
2018-06-09T07:02:36.902Z,49.45
2018-06-09T07:17:34.895Z,46.14
2018-06-09T07:32:38.800Z,44.31
2018-06-09T07:47:37.782Z,44.56
2018-06-09T08:02:35.825Z,44.21
2018-06-09T08:17:42.262Z,43.98
2018-06-09T08:47:34.776Z,40.30
2018-06-09T09:02:35.122Z,38.71
2018-06-09T09:17:34.719Z,36.58
2018-06-09T09:32:36.349Z,36.75
2018-06-09T09:47:35.125Z,36.72
2018-06-09T10:02:37.572Z,38.61
2018-06-09T10:17:38.126Z,39.64
2018-06-09T10:32:35.284Z,39.16
2018-06-09T10:47:42.857Z,39.23
2018-06-09T11:02:40.991Z,38.90
2018-06-09T11:17:35.499Z,39.03
2018-06-09T11:32:36.731Z,45.28
2018-06-09T11:47:36.598Z,51.05
2018-06-09T12:02:34.832Z,57.28
2018-06-09T12:17:36.671Z,61.10
2018-06-09T12:32:37.308Z,61.59
2018-06-09T12:47:34.983Z,62.81
2018-06-09T13:02:35.066Z,64.00
2018-06-09T13:17:35.064Z,65.83
2018-06-09T13:32:35.409Z,65.90
2018-06-09T13:47:34.451Z,62.00
2018-06-09T14:02:36.672Z,59.50
2018-06-09T14:17:34.485Z,56.81
2018-06-09T14:32:34.856Z,58.21
2018-06-09T14:47:35.063Z,55.66
2018-06-09T15:02:35.118Z,57.03
2018-06-09T15:17:34.931Z,55.41
2018-06-09T15:32:37.883Z,55.68
2018-06-09T15:47:37.255Z,60.43
2018-06-09T16:02:35.840Z,63.21
2018-06-09T16:17:34.794Z,59.82
2018-06-09T16:32:34.939Z,59.02
2018-06-09T16:47:34.692Z,59.53
2018-06-09T17:02:34.918Z,59.55
2018-06-09T17:17:34.951Z,59.31
2018-06-09T17:32:33.739Z,61.40
2018-06-09T17:47:34.798Z,58.95
2018-06-09T18:02:35.331Z,57.87
2018-06-09T18:17:35.352Z,57.75
